Time;durP1;ratioP1;P1;durP2;ratioP2;P2;SDS_P1;SDS_P2;PMS_P1;PMS_P2;Temp;Humidity;BMP_temperature;BMP_pressure;BME280_temperature;BME280_humidity;BME280_pressure;Samples;Min_cycle;Max_cycle;Signal;HPM_P1;HPM_P2
2022/08/25 00:01:24;;;;;;;;;;;;;;;;;;5096432;28;19916;-89
2022/08/25 00:03:51;;;;;;;;;;;;;;;;;;5096018;28;20374;-87
2022/08/25 00:06:17;;;;;;;;;;;;;;;;;;5077863;28;19927;-87
2022/08/25 00:08:42;;;;;;;;;;;;;;;;;;5095879;28;19920;-89
2022/08/25 00:11:13;;;;;;;;;;;;;;;;;;5077252;28;19962;-88
2022/08/25 00:13:41;;;;;;;;;;;;;;;;;;5095982;28;19916;-89
2022/08/25 00:16:07;;;;;;;;;;;;;;;;;;5095654;28;19916;-89
2022/08/25 00:18:32;;;;;;;;;;;;;;;;;;5095527;28;20022;-89
2022/08/25 00:20:58;;;;;;;;;;;;;;;;;;5095600;28;19955;-91
2022/08/25 00:23:23;;;;;;;;;;;;;;;;;;5102068;28;20419;-90
2022/08/25 00:25:49;;;;;;;;;;;;;;;;;;5101798;28;20018;-89
2022/08/25 00:28:15;;;;;;;;;;;;;;;;;;5095173;28;19916;-88
2022/08/25 00:30:41;;;;;;;;;;;;;;;;;;5082497;28;19917;-88
2022/08/25 00:33:06;;;;;;;;;;;;;;;;;;5074734;28;19916;-89
2022/08/25 00:35:32;;;;;;;;;;;;;;;;;;5074979;28;19927;-90
2022/08/25 00:37:57;;;;;;;;;;;;;;;;;;5074310;28;19964;-90
2022/08/25 00:40:23;;;;;;;;;;;;;;;;;;5073400;28;19920;-89
2022/08/25 00:42:59;;;;;;;;;;;;;;;;;;5073048;28;19923;-91
2022/08/25 00:45:25;;;;;;;;;;;;;;;;;;5074200;28;19962;-88
2022/08/25 00:47:50;;;;;;;;;;;;;;;;;;5074567;28;19913;-88
2022/08/25 00:50:16;;;;;;;;;;;;;;;;;;5072855;28;19987;-89
2022/08/25 00:52:46;;;;;;;;;;;;;;;;;;5072327;28;19939;-88
2022/08/25 00:55:20;;;;;;;;;;;;;;;;;;5073709;28;19917;-88
2022/08/25 00:57:48;;;;;;;;;;;;;;;;;;5073683;28;19912;-88
2022/08/25 01:00:24;;;;;;;;;;;;;;;;;;5077577;28;20278;-89
2022/08/25 01:02:49;;;;;;;;;;;;;;;;;;5076318;28;19916;-89
2022/08/25 01:05:16;;;;;;;;;;;;;;;;;;5077618;28;19970;-88
2022/08/25 01:07:42;;;;;;;;;;;;;;;;;;5077651;28;20314;-87
2022/08/25 01:10:09;;;;;;;;;;;;;;;;;;5076315;28;19916;-88
2022/08/25 01:12:36;;;;;;;;;;;;;;;;;;5077452;28;19921;-88
2022/08/25 01:15:03;;;;;;;;;;;;;;;;;;5077542;28;19917;-90
2022/08/25 01:17:43;;;;;;;;;;;;;;;;;;5076149;28;19923;-89
2022/08/25 01:20:09;;;;;;;;;;;;;;;;;;5077639;28;20003;-88
2022/08/25 01:22:36;;;;;;;;;;;;;;;;;;5077383;28;20016;-89
2022/08/25 01:25:04;;;;;;;;;;;;;;;;;;5077523;28;19916;-90
2022/08/25 01:27:29;;;;;;;;;;;;;;;;;;5075712;28;19912;-88
2022/08/25 01:29:56;;;;;;;;;;;;;;;;;;5077264;28;19970;-87
2022/08/25 01:32:22;;;;;;;;;;;;;;;;;;5077140;28;19940;-89
2022/08/25 01:34:48;;;;;;;;;;;;;;;;;;5077094;28;20311;-90
2022/08/25 01:37:14;;;;;;;;;;;;;;;;;;5077006;28;19925;-89
2022/08/25 01:39:40;;;;;;;;;;;;;;;;;;5077017;28;20003;-88
2022/08/25 01:42:07;;;;;;;;;;;;;;;;;;5076901;28;20379;-88
2022/08/25 01:44:34;;;;;;;;;;;;;;;;;;5075441;28;19966;-89
2022/08/25 01:47:00;;;;;;;;;;;;;;;;;;5077006;28;20379;-88
2022/08/25 01:49:25;;;;;;;;;;;;;;;;;;5076861;28;19955;-89
2022/08/25 01:51:52;;;;;;;;;;;;;;;;;;5075798;28;19918;-88
2022/08/25 01:54:18;;;;;;;;;;;;;;;;;;5076835;28;19924;-88
2022/08/25 01:56:43;;;;;;;;;;;;;;;;;;5076753;28;19924;-87
2022/08/25 01:59:09;;;;;;;;;;;;;;;;;;5076876;28;19916;-87
2022/08/25 02:01:34;;;;;;;;;;;;;;;;;;5077005;28;20356;-89
2022/08/25 02:04:00;;;;;;;;;;;;;;;;;;5076608;28;19916;-89
2022/08/25 02:06:28;;;;;;;;;;;;;;;;;;5075348;28;19967;-88
2022/08/25 02:08:54;;;;;;;;;;;;;;;;;;5076616;28;19942;-88
2022/08/25 02:11:20;;;;;;;;;;;;;;;;;;5074632;28;20395;-89
2022/08/25 02:13:46;;;;;;;;;;;;;;;;;;5075493;28;20394;-88
2022/08/25 02:16:15;;;;;;;;;;;;;;;;;;5075011;28;19916;-88
2022/08/25 02:18:41;;;;;;;;;;;;;;;;;;5075195;28;20367;-87
2022/08/25 02:21:06;;;;;;;;;;;;;;;;;;5076566;28;19917;-88
2022/08/25 02:23:32;;;;;;;;;;;;;;;;;;5076173;28;19966;-87
2022/08/25 02:25:57;;;;;;;;;;;;;;;;;;5087973;28;19924;-88
2022/08/25 02:28:23;;;;;;;;;;;;;;;;;;5104644;28;19917;-89
2022/08/25 02:30:51;;;;;;;;;;;;;;;;;;5094682;28;19916;-90
2022/08/25 02:33:17;;;;;;;;;;;;;;;;;;5095833;28;19913;-90
2022/08/25 02:35:42;;;;;;;;;;;;;;;;;;5090736;28;19916;-90
2022/08/25 02:38:07;;;;;;;;;;;;;;;;;;5074720;28;19966;-87
2022/08/25 02:40:33;;;;;;;;;;;;;;;;;;5071094;28;20393;-90
2022/08/25 02:42:58;;;;;;;;;;;;;;;;;;5083658;28;20275;-89
2022/08/25 02:45:24;;;;;;;;;;;;;;;;;;5094722;28;19947;-90
2022/08/25 02:47:49;;;;;;;;;;;;;;;;;;5077059;28;19965;-88
2022/08/25 02:50:15;;;;;;;;;;;;;;;;;;5087418;28;19916;-89
2022/08/25 02:52:40;;;;;;;;;;;;;;;;;;5064965;28;20333;-88
2022/08/25 02:55:07;;;;;;;;;;;;;;;;;;5085696;28;20368;-89
2022/08/25 02:57:33;;;;;;;;;;;;;;;;;;5092469;28;19987;-90
2022/08/25 02:59:58;;;;;;;;;;;;;;;;;;5077618;28;20058;-89
2022/08/25 03:02:24;;;;;;;;;;;;;;;;;;5095901;28;20290;-89
2022/08/25 03:04:50;;;;;;;;;;;;;;;;;;5077673;28;19969;-88
2022/08/25 03:07:16;;;;;;;;;;;;;;;;;;5075211;28;19916;-90
2022/08/25 03:09:42;;;;;;;;;;;;;;;;;;5068766;28;20279;-89
2022/08/25 03:12:08;;;;;;;;;;;;;;;;;;5075272;28;19970;-89
2022/08/25 03:14:33;;;;;;;;;;;;;;;;;;5057172;28;19925;-89
2022/08/25 03:16:59;;;;;;;;;;;;;;;;;;5075225;28;20269;-89
2022/08/25 03:19:24;;;;;;;;;;;;;;;;;;5074969;28;19955;-90
2022/08/25 03:21:51;;;;;;;;;;;;;;;;;;5074233;28;19916;-89
2022/08/25 03:24:16;;;;;;;;;;;;;;;;;;5057464;28;19916;-89
2022/08/25 03:26:57;;;;;;;;;;;;;;;;;;5057453;28;19973;-90
2022/08/25 03:29:24;;;;;;;;;;;;;;;;;;5075117;28;19917;-90
2022/08/25 03:31:50;;;;;;;;;;;;;;;;;;5075463;28;19963;-88
2022/08/25 03:34:16;;;;;;;;;;;;;;;;;;5075609;28;19952;-88
2022/08/25 03:36:43;;;;;;;;;;;;;;;;;;5077360;28;19921;-89
2022/08/25 03:39:09;;;;;;;;;;;;;;;;;;5060010;28;19938;-89
2022/08/25 03:41:34;;;;;;;;;;;;;;;;;;5079643;28;20355;-89
2022/08/25 03:44:02;;;;;;;;;;;;;;;;;;5060847;28;19920;-89
2022/08/25 03:46:31;;;;;;;;;;;;;;;;;;5059506;28;19917;-88
2022/08/25 03:48:59;;;;;;;;;;;;;;;;;;5075955;28;19916;-89
2022/08/25 03:51:26;;;;;;;;;;;;;;;;;;5058371;28;20264;-90
2022/08/25 03:53:52;;;;;;;;;;;;;;;;;;5075949;28;20355;-90
2022/08/25 03:56:18;;;;;;;;;;;;;;;;;;5058049;28;19927;-90
2022/08/25 03:58:43;;;;;;;;;;;;;;;;;;5076822;28;19924;-90
2022/08/25 04:01:10;;;;;;;;;;;;;;;;;;5076822;28;19916;-91
2022/08/25 04:03:35;;;;;;;;;;;;;;;;;;5059079;28;19917;-91
2022/08/25 04:06:02;;;;;;;;;;;;;;;;;;5058768;28;19917;-90
2022/08/25 04:08:27;;;;;;;;;;;;;;;;;;5076168;28;20304;-90
2022/08/25 04:10:54;;;;;;;;;;;;;;;;;;5057183;28;19920;-90
2022/08/25 04:13:19;;;;;;;;;;;;;;;;;;5056836;28;19939;-90
2022/08/25 04:15:45;;;;;;;;;;;;;;;;;;5056628;28;20377;-91
2022/08/25 04:18:10;;;;;;;;;;;;;;;;;;5074811;28;20269;-89
2022/08/25 04:20:36;;;;;;;;;;;;;;;;;;5056982;28;19924;-89
2022/08/25 04:23:01;;;;;;;;;;;;;;;;;;5074781;28;19917;-88
2022/08/25 04:25:27;;;;;;;;;;;;;;;;;;5057098;28;20433;-89
2022/08/25 04:27:53;;;;;;;;;;;;;;;;;;5057153;28;19946;-90
2022/08/25 04:30:19;;;;;;;;;;;;;;;;;;5062687;28;19980;-91
2022/08/25 04:32:47;;;;;;;;;;;;;;;;;;5102637;28;19916;-90
2022/08/25 04:35:12;;;;;;;;;;;;;;;;;;5083259;28;19928;-91
2022/08/25 04:37:37;;;;;;;;;;;;;;;;;;5103179;28;19931;-90
2022/08/25 04:40:03;;;;;;;;;;;;;;;;;;5099473;28;19920;-90
2022/08/25 04:42:29;;;;;;;;;;;;;;;;;;5076697;28;19962;-89
2022/08/25 04:44:59;;;;;;;;;;;;;;;;;;5094527;28;20274;-91
2022/08/25 04:47:25;;;;;;;;;;;;;;;;;;5095567;28;20003;-89
2022/08/25 04:49:50;;;;;;;;;;;;;;;;;;5076049;28;19939;-92
2022/08/25 04:52:15;;;;;;;;;;;;;;;;;;5075974;28;20468;-89
2022/08/25 04:54:41;;;;;;;;;;;;;;;;;;5093922;28;19916;-91
2022/08/25 04:57:07;;;;;;;;;;;;;;;;;;5094087;28;19917;-90
2022/08/25 04:59:32;;;;;;;;;;;;;;;;;;5075705;28;19920;-89
2022/08/25 05:02:01;;;;;;;;;;;;;;;;;;5093962;28;19920;-90
2022/08/25 05:04:26;;;;;;;;;;;;;;;;;;5094132;28;20268;-91
2022/08/25 05:06:51;;;;;;;;;;;;;;;;;;5075749;28;19931;-90
2022/08/25 05:09:17;;;;;;;;;;;;;;;;;;5094050;28;19923;-92
2022/08/25 05:11:43;;;;;;;;;;;;;;;;;;5093837;28;19916;-91
2022/08/25 05:14:10;;;;;;;;;;;;;;;;;;5075677;28;20007;-91
2022/08/25 05:16:37;;;;;;;;;;;;;;;;;;5093844;28;19954;-88
2022/08/25 05:19:03;;;;;;;;;;;;;;;;;;5076134;28;20286;-90
2022/08/25 05:21:29;;;;;;;;;;;;;;;;;;5067536;28;20318;-90
2022/08/25 05:23:58;;;;;;;;;;;;;;;;;;5077704;28;19920;-91
2022/08/25 05:26:25;;;;;;;;;;;;;;;;;;5073500;28;19917;-90
2022/08/25 05:28:51;;;;;;;;;;;;;;;;;;5073574;28;20363;-91
2022/08/25 05:31:17;;;;;;;;;;;;;;;;;;5055683;28;19923;-90
2022/08/25 05:33:43;;;;;;;;;;;;;;;;;;5055355;28;19916;-89
2022/08/25 05:36:09;;;;;;;;;;;;;;;;;;5073128;28;19920;-89
2022/08/25 05:38:36;;;;;;;;;;;;;;;;;;5073265;28;20295;-90
2022/08/25 05:41:02;;;;;;;;;;;;;;;;;;5055375;28;19936;-89
2022/08/25 05:43:28;;;;;;;;;;;;;;;;;;5073382;28;20051;-91
2022/08/25 05:45:57;;;;;;;;;;;;;;;;;;5074728;28;19963;-90
2022/08/25 05:48:23;;;;;;;;;;;;;;;;;;5066113;28;20013;-90
2022/08/25 05:50:56;;;;;;;;;;;;;;;;;;5069633;28;19967;-90
2022/08/25 05:53:22;;;;;;;;;;;;;;;;;;5083957;28;19969;-89
2022/08/25 05:55:48;;;;;;;;;;;;;;;;;;5086026;28;20011;-89
2022/08/25 05:58:14;;;;;;;;;;;;;;;;;;5082674;28;19927;-90
2022/08/25 06:00:39;;;;;;;;;;;;;;;;;;5068266;28;19916;-89
2022/08/25 06:03:05;;;;;;;;;;;;;;;;;;5083561;28;20010;-91
2022/08/25 06:05:31;;;;;;;;;;;;;;;;;;5082333;28;19999;-89
2022/08/25 06:07:57;;;;;;;;;;;;;;;;;;5083608;28;19966;-89
2022/08/25 06:10:22;;;;;;;;;;;;;;;;;;5085471;28;19920;-89
2022/08/25 06:12:48;;;;;;;;;;;;;;;;;;5076390;28;20268;-89
2022/08/25 06:15:18;;;;;;;;;;;;;;;;;;5064536;28;19916;-89
2022/08/25 06:17:44;;;;;;;;;;;;;;;;;;5067877;28;19965;-91
2022/08/25 06:20:14;;;;;;;;;;;;;;;;;;5080908;28;19912;-90
2022/08/25 06:22:40;;;;;;;;;;;;;;;;;;5087306;28;20282;-91
2022/08/25 13:02:54;;;;;;;;;;;;;;;;;;5075877;27;2603146;-89
2022/08/25 13:05:32;;;;;;;;;;;;;;;;;;5136267;27;19919;-90
2022/08/25 13:08:05;;;;;;;;;;;;;;;;;;5154634;27;19915;-92
2022/08/25 13:10:33;;;;;;;;;;;;;;;;;;5136575;27;19916;-90
2022/08/25 13:13:11;;;;;;;;;;;;;;;;;;5156927;27;19969;-89
2022/08/25 13:15:41;;;;;;;;;;;;;;;;;;5159873;27;19965;-89
2022/08/25 13:18:14;;;;;;;;;;;;;;;;;;5159143;27;19915;-91
2022/08/25 13:20:40;;;;;;;;;;;;;;;;;;5137792;27;19916;-91
2022/08/25 13:23:05;;;;;;;;;;;;;;;;;;5142246;27;19923;-91
2022/08/25 13:25:32;;;;;;;;;;;;;;;;;;5160590;27;19934;-90
2022/08/25 13:27:59;;;;;;;;;;;;;;;;;;5159087;27;19923;-90
2022/08/25 13:30:29;;;;;;;;;;;;;;;;;;5158177;27;19915;-90
2022/08/25 13:32:55;;;;;;;;;;;;;;;;;;5136650;27;19964;-90
2022/08/25 13:35:24;;;;;;;;;;;;;;;;;;5157511;27;19919;-89
2022/08/25 13:37:49;;;;;;;;;;;;;;;;;;5138106;27;19911;-90
2022/08/25 13:40:18;;;;;;;;;;;;;;;;;;5156567;27;19915;-91
2022/08/25 13:42:45;;;;;;;;;;;;;;;;;;5156340;27;19916;-92
2022/08/25 13:45:15;;;;;;;;;;;;;;;;;;5155440;27;19942;-89
2022/08/25 13:47:47;;;;;;;;;;;;;;;;;;5136695;27;20018;-89
2022/08/25 13:50:21;;;;;;;;;;;;;;;;;;5140699;27;19923;-90
2022/08/25 13:52:48;;;;;;;;;;;;;;;;;;5142528;27;19919;-90
2022/08/25 13:55:19;;;;;;;;;;;;;;;;;;5141577;27;20009;-90
2022/08/25 13:57:44;;;;;;;;;;;;;;;;;;5143013;27;19916;-92
2022/08/25 14:00:10;;;;;;;;;;;;;;;;;;5144292;27;19991;-91
2022/08/25 14:02:46;;;;;;;;;;;;;;;;;;5139880;27;20006;-91
2022/08/25 14:05:17;;;;;;;;;;;;;;;;;;5139108;27;19941;-90
2022/08/25 14:07:55;;;;;;;;;;;;;;;;;;5156254;27;19919;-91
2022/08/25 14:10:36;;;;;;;;;;;;;;;;;;5139197;27;19967;-91
2022/08/25 14:13:20;;;;;;;;;;;;;;;;;;5150458;27;20009;-89
2022/08/25 14:15:46;;;;;;;;;;;;;;;;;;5125043;27;19922;-90
2022/08/25 14:18:22;;;;;;;;;;;;;;;;;;5124891;27;19915;-89
2022/08/25 14:20:49;;;;;;;;;;;;;;;;;;5124715;27;19916;-90
2022/08/25 14:23:20;;;;;;;;;;;;;;;;;;5124700;27;19972;-90
2022/08/25 14:25:47;;;;;;;;;;;;;;;;;;5143224;27;19915;-90
2022/08/25 14:28:18;;;;;;;;;;;;;;;;;;5123368;27;19923;-90
2022/08/25 14:30:45;;;;;;;;;;;;;;;;;;5123007;27;19911;-90
2022/08/25 14:33:11;;;;;;;;;;;;;;;;;;5122164;27;19916;-89
2022/08/25 14:35:37;;;;;;;;;;;;;;;;;;5124081;27;19942;-92
2022/08/25 14:38:10;;;;;;;;;;;;;;;;;;5123502;27;19919;-90
2022/08/25 14:40:35;;;;;;;;;;;;;;;;;;5142109;27;19916;-91
2022/08/25 14:43:01;;;;;;;;;;;;;;;;;;5141988;27;19922;-90
2022/08/25 14:45:27;;;;;;;;;;;;;;;;;;5141905;27;20362;-90
2022/08/25 14:47:54;;;;;;;;;;;;;;;;;;5122426;27;20010;-91
2022/08/25 14:50:19;;;;;;;;;;;;;;;;;;5112137;27;19922;-90
2022/08/25 14:52:45;;;;;;;;;;;;;;;;;;5130215;27;19915;-89
2022/08/25 14:55:11;;;;;;;;;;;;;;;;;;5141861;27;20068;-91
2022/08/25 14:57:37;;;;;;;;;;;;;;;;;;5123479;27;20293;-91
2022/08/25 15:00:03;;;;;;;;;;;;;;;;;;5139947;27;19955;-91
2022/08/25 15:02:30;;;;;;;;;;;;;;;;;;5140028;27;19987;-91
2022/08/25 15:04:58;;;;;;;;;;;;;;;;;;5118362;28;20366;-93
2022/08/25 15:10:08;;;;;;;;;;;;;;;;;;5117446;28;20436;-91
2022/08/25 15:12:34;;;;;;;;;;;;;;;;;;5117375;28;19916;-91
2022/08/25 15:15:00;;;;;;;;;;;;;;;;;;5106237;28;20263;-91
2022/08/25 15:17:26;;;;;;;;;;;;;;;;;;5099827;28;19916;-91
2022/08/25 15:19:53;;;;;;;;;;;;;;;;;;5096603;28;20314;-92
2022/08/25 15:22:18;;;;;;;;;;;;;;;;;;5100408;28;19920;-92
2022/08/25 15:24:44;;;;;;;;;;;;;;;;;;5098264;28;19923;-91
2022/08/25 15:27:11;;;;;;;;;;;;;;;;;;5100332;28;19916;-91
2022/08/25 15:29:36;;;;;;;;;;;;;;;;;;5099462;28;19927;-89
2022/08/25 15:32:03;;;;;;;;;;;;;;;;;;5099319;28;19916;-91
2022/08/25 15:34:29;;;;;;;;;;;;;;;;;;5100429;28;19966;-91
2022/08/25 15:36:59;;;;;;;;;;;;;;;;;;5101306;28;19998;-92
2022/08/25 15:39:24;;;;;;;;;;;;;;;;;;5103122;28;19916;-92
2022/08/25 15:41:55;;;;;;;;;;;;;;;;;;5102474;28;20014;-92
2022/08/25 15:44:21;;;;;;;;;;;;;;;;;;5085491;28;19920;-92
2022/08/25 15:46:47;;;;;;;;;;;;;;;;;;5103953;28;19922;-92
2022/08/25 15:49:12;;;;;;;;;;;;;;;;;;5102883;28;19939;-92
2022/08/25 15:51:38;;;;;;;;;;;;;;;;;;5100204;28;19927;-93
2022/08/25 15:54:03;;;;;;;;;;;;;;;;;;5112744;22;20438;-91
2022/08/25 15:56:30;;;;;;;;;;;;;;;;;;5057965;28;20350;-91
2022/08/25 15:58:56;;;;;;;;;;;;;;;;;;5057922;28;19942;-92
2022/08/25 16:01:23;;;;;;;;;;;;;;;;;;5080072;28;19916;-91
2022/08/25 16:03:51;;;;;;;;;;;;;;;;;;5062638;28;20003;-90
2022/08/25 16:06:16;;;;;;;;;;;;;;;;;;5061838;28;19916;-92
2022/08/25 16:08:42;;;;;;;;;;;;;;;;;;5062608;28;19947;-92
2022/08/25 16:11:15;;;;;;;;;;;;;;;;;;5063575;28;20244;-92
2022/08/25 16:13:40;;;;;;;;;;;;;;;;;;5063581;28;19967;-92
2022/08/25 16:16:06;;;;;;;;;;;;;;;;;;5062383;28;19920;-93
2022/08/25 16:18:31;;;;;;;;;;;;;;;;;;5062265;28;19916;-91
2022/08/25 16:20:56;;;;;;;;;;;;;;;;;;5075449;28;20249;-90
2022/08/25 16:23:22;;;;;;;;;;;;;;;;;;5061579;28;19917;-92
2022/08/25 16:25:48;;;;;;;;;;;;;;;;;;5061978;28;19916;-90
2022/08/25 16:28:16;;;;;;;;;;;;;;;;;;5063221;28;19973;-91
2022/08/25 16:30:48;;;;;;;;;;;;;;;;;;5049636;28;19917;-91
2022/08/25 16:33:14;;;;;;;;;;;;;;;;;;5077065;28;19917;-91
2022/08/25 16:35:40;;;;;;;;;;;;;;;;;;5083932;28;19920;-90
2022/08/25 16:38:06;;;;;;;;;;;;;;;;;;5063909;28;19916;-92
2022/08/25 16:40:32;;;;;;;;;;;;;;;;;;5050053;28;20367;-91
2022/08/25 16:42:58;;;;;;;;;;;;;;;;;;5064225;28;20006;-92
2022/08/25 16:45:23;;;;;;;;;;;;;;;;;;5065207;28;19916;-90
2022/08/25 16:47:49;;;;;;;;;;;;;;;;;;5065943;28;19923;-92
2022/08/25 16:50:15;;;;;;;;;;;;;;;;;;5064415;28;19917;-90
2022/08/25 16:55:26;;;;;;;;;;;;;;;;;;5083647;28;19927;-90
2022/08/25 16:57:53;;;;;;;;;;;;;;;;;;5065745;28;19917;-92
2022/08/25 17:00:21;;;;;;;;;;;;;;;;;;5084594;28;19916;-91
2022/08/25 17:02:47;;;;;;;;;;;;;;;;;;5067503;28;20005;-91
2022/08/25 17:05:13;;;;;;;;;;;;;;;;;;5084847;28;19916;-91
2022/08/25 17:07:40;;;;;;;;;;;;;;;;;;5065933;28;19954;-92
2022/08/25 17:10:06;;;;;;;;;;;;;;;;;;5085326;28;20438;-93
2022/08/25 17:12:32;;;;;;;;;;;;;;;;;;5065527;28;19916;-92
2022/08/25 17:14:58;;;;;;;;;;;;;;;;;;5065597;28;19942;-91
2022/08/25 17:17:23;;;;;;;;;;;;;;;;;;5066213;28;19924;-90
2022/08/25 17:20:08;;;;;;;;;;;;;;;;;;5081963;28;19964;-92
2022/08/25 17:22:33;;;;;;;;;;;;;;;;;;5064163;28;19916;-92
2022/08/25 17:25:01;;;;;;;;;;;;;;;;;;5080725;28;19938;-93
2022/08/25 17:27:27;;;;;;;;;;;;;;;;;;5061103;28;19947;-93
2022/08/25 17:30:31;;;;;;;;;;;;;;;;;;5075287;28;19916;-92
2022/08/25 17:32:56;;;;;;;;;;;;;;;;;;5015271;28;19922;-93
2022/08/25 17:40:46;;;;;;;;;;;;;;;;;;5014867;28;19929;-92
2022/08/25 17:43:14;;;;;;;;;;;;;;;;;;5015472;28;20004;-93
2022/08/25 17:46:14;;;;;;;;;;;;;;;;;;5001200;28;20411;-94
2022/08/25 17:51:15;;;;;;;;;;;;;;;;;;4994749;28;19926;-92
2022/08/25 17:53:42;;;;;;;;;;;;;;;;;;4982028;28;20308;-94
2022/08/25 17:56:09;;;;;;;;;;;;;;;;;;4980554;28;19922;-91
2022/08/25 17:58:39;;;;;;;;;;;;;;;;;;4982184;28;19969;-93
2022/08/25 18:01:05;;;;;;;;;;;;;;;;;;4982186;28;19918;-92
2022/08/25 18:06:24;;;;;;;;;;;;;;;;;;5007294;23;19926;-90
2022/08/25 18:14:07;;;;;;;;;;;;;;;;;;5036465;23;20297;-90
2022/08/25 18:16:32;;;;;;;;;;;;;;;;;;5002125;28;19917;-92
2022/08/25 18:24:49;;;;;;;;;;;;;;;;;;5223687;23;20048;-92
2022/08/25 18:27:15;;;;;;;;;;;;;;;;;;4999945;28;20397;-91
2022/08/25 18:35:22;;;;;;;;;;;;;;;;;;5017134;23;19932;-91
2022/08/25 18:40:31;;;;;;;;;;;;;;;;;;4997541;28;19973;-91
2022/08/25 18:43:23;;;;;;;;;;;;;;;;;;4982842;28;19922;-91
2022/08/25 18:45:48;;;;;;;;;;;;;;;;;;4999466;28;19965;-92
2022/08/25 18:48:15;;;;;;;;;;;;;;;;;;4982715;28;19925;-91
2022/08/25 18:58:53;;;;;;;;;;;;;;;;;;4997183;28;19929;-91
2022/08/25 19:01:21;;;;;;;;;;;;;;;;;;4997714;28;21494;-91
2022/08/25 19:03:58;;;;;;;;;;;;;;;;;;5026943;23;20030;-92
2022/08/25 19:06:24;;;;;;;;;;;;;;;;;;5007278;28;19918;-92
2022/08/25 19:08:50;;;;;;;;;;;;;;;;;;5028615;28;20008;-91
2022/08/25 19:11:16;;;;;;;;;;;;;;;;;;5003747;28;20133;-90
2022/08/25 19:13:42;;;;;;;;;;;;;;;;;;4995655;28;19960;-90
2022/08/25 19:16:08;;;;;;;;;;;;;;;;;;4999271;28;19913;-93
2022/08/25 19:19:11;;;;;;;;;;;;;;;;;;5011260;28;19927;-93
2022/08/25 19:43:42;;;;;;;;;;;;;;;;;;5045464;23;19932;-94
2022/08/25 20:00:04;;;;;;;;;;;;;;;;;;4998552;23;20025;-92
2022/08/25 20:02:29;;;;;;;;;;;;;;;;;;5012268;28;19921;-90
2022/08/25 20:04:56;;;;;;;;;;;;;;;;;;5004570;28;19918;-92
2022/08/25 20:07:23;;;;;;;;;;;;;;;;;;4998393;28;19906;-91
2022/08/25 20:09:58;;;;;;;;;;;;;;;;;;5010823;28;19917;-91
2022/08/25 20:12:23;;;;;;;;;;;;;;;;;;4988387;28;19918;-90
2022/08/25 20:14:50;;;;;;;;;;;;;;;;;;4997720;28;21248;-92
2022/08/25 20:20:20;;;;;;;;;;;;;;;;;;5021738;23;19926;-91
2022/08/25 20:22:46;;;;;;;;;;;;;;;;;;4996451;28;20033;-93
2022/08/25 20:25:15;;;;;;;;;;;;;;;;;;4990478;28;20649;-92
2022/08/25 20:27:42;;;;;;;;;;;;;;;;;;5007967;28;19918;-89
2022/08/25 20:30:17;;;;;;;;;;;;;;;;;;4978955;28;19925;-90
2022/08/25 20:32:43;;;;;;;;;;;;;;;;;;4988836;28;19969;-93
2022/08/25 20:35:10;;;;;;;;;;;;;;;;;;5313087;23;20383;-90
2022/08/25 20:37:36;;;;;;;;;;;;;;;;;;5017866;28;19928;-92
2022/08/25 20:40:02;;;;;;;;;;;;;;;;;;5023239;28;19902;-90
2022/08/25 20:42:28;;;;;;;;;;;;;;;;;;5014981;28;20621;-91
2022/08/25 20:44:53;;;;;;;;;;;;;;;;;;5016287;28;19927;-93
2022/08/25 20:47:22;;;;;;;;;;;;;;;;;;5031797;28;19917;-92
2022/08/25 20:49:52;;;;;;;;;;;;;;;;;;5016919;28;19957;-91
2022/08/25 20:52:21;;;;;;;;;;;;;;;;;;5033874;28;19917;-91
2022/08/25 20:54:47;;;;;;;;;;;;;;;;;;5019423;28;19932;-91
2022/08/25 20:57:12;;;;;;;;;;;;;;;;;;5018831;28;19917;-92
2022/08/25 20:59:38;;;;;;;;;;;;;;;;;;5018167;28;19917;-92
2022/08/25 21:02:03;;;;;;;;;;;;;;;;;;5029443;28;19929;-92
2022/08/25 21:04:29;;;;;;;;;;;;;;;;;;5018419;28;19925;-91
2022/08/25 21:06:56;;;;;;;;;;;;;;;;;;5029680;28;20047;-91
2022/08/25 21:09:22;;;;;;;;;;;;;;;;;;5021658;28;19971;-91
2022/08/25 21:11:49;;;;;;;;;;;;;;;;;;5015906;28;19921;-90
2022/08/25 21:14:14;;;;;;;;;;;;;;;;;;5026159;28;19921;-90
2022/08/25 21:16:44;;;;;;;;;;;;;;;;;;5016672;28;20372;-91
2022/08/25 21:19:11;;;;;;;;;;;;;;;;;;5016463;28;19925;-91
2022/08/25 21:21:36;;;;;;;;;;;;;;;;;;5019601;28;20520;-91
2022/08/25 21:24:02;;;;;;;;;;;;;;;;;;5023429;28;19932;-92
2022/08/25 21:26:28;;;;;;;;;;;;;;;;;;5020126;28;19918;-92
2022/08/25 21:28:58;;;;;;;;;;;;;;;;;;5038047;28;20988;-93
2022/08/25 21:31:24;;;;;;;;;;;;;;;;;;5022127;28;19932;-91
2022/08/25 21:33:54;;;;;;;;;;;;;;;;;;5032537;28;19925;-91
2022/08/25 21:36:20;;;;;;;;;;;;;;;;;;5013611;28;20020;-93
2022/08/25 21:38:46;;;;;;;;;;;;;;;;;;5020944;28;20004;-92
2022/08/25 21:41:14;;;;;;;;;;;;;;;;;;5012965;28;19917;-91
2022/08/25 21:43:40;;;;;;;;;;;;;;;;;;5003332;28;19921;-92
2022/08/25 21:46:08;;;;;;;;;;;;;;;;;;5013434;28;20389;-91
2022/08/25 21:48:34;;;;;;;;;;;;;;;;;;5014429;28;19933;-93
2022/08/25 21:51:07;;;;;;;;;;;;;;;;;;5012907;28;20015;-91
2022/08/25 21:53:32;;;;;;;;;;;;;;;;;;5014088;28;19917;-91
2022/08/25 21:56:01;;;;;;;;;;;;;;;;;;5015154;28;19913;-91
2022/08/25 21:58:26;;;;;;;;;;;;;;;;;;5020840;28;19925;-92
2022/08/25 22:00:52;;;;;;;;;;;;;;;;;;5014132;28;19918;-93
2022/08/25 22:03:17;;;;;;;;;;;;;;;;;;5012933;28;19925;-94
2022/08/25 22:05:43;;;;;;;;;;;;;;;;;;5004553;28;19921;-92
2022/08/25 22:08:08;;;;;;;;;;;;;;;;;;5014344;28;20292;-90
2022/08/25 22:10:33;;;;;;;;;;;;;;;;;;5004190;28;19922;-91
2022/08/25 22:13:00;;;;;;;;;;;;;;;;;;5002944;28;19918;-92
2022/08/25 22:15:25;;;;;;;;;;;;;;;;;;5014573;28;19922;-92
2022/08/25 22:17:51;;;;;;;;;;;;;;;;;;5003740;28;19924;-92
2022/08/25 22:20:16;;;;;;;;;;;;;;;;;;5015144;28;20293;-91
2022/08/25 22:22:42;;;;;;;;;;;;;;;;;;5003669;28;20472;-93
2022/08/25 22:25:07;;;;;;;;;;;;;;;;;;4995464;28;19918;-93
2022/08/25 22:27:33;;;;;;;;;;;;;;;;;;5002457;28;20083;-93
2022/08/25 22:29:58;;;;;;;;;;;;;;;;;;5013034;28;19955;-92
2022/08/25 22:32:24;;;;;;;;;;;;;;;;;;5005055;28;19917;-93
2022/08/25 22:34:49;;;;;;;;;;;;;;;;;;5010727;28;19925;-92
2022/08/25 22:37:16;;;;;;;;;;;;;;;;;;5020818;28;20284;-91
2022/08/25 22:39:44;;;;;;;;;;;;;;;;;;5020804;28;19917;-93
2022/08/25 22:42:09;;;;;;;;;;;;;;;;;;5033414;28;19917;-90
2022/08/25 22:44:36;;;;;;;;;;;;;;;;;;5020653;28;19964;-91
2022/08/25 22:47:01;;;;;;;;;;;;;;;;;;5035483;28;19914;-92
2022/08/25 22:49:28;;;;;;;;;;;;;;;;;;5029170;28;19923;-91
2022/08/25 22:51:53;;;;;;;;;;;;;;;;;;5026381;28;20332;-90
2022/08/25 22:54:18;;;;;;;;;;;;;;;;;;5018296;28;19917;-91
2022/08/25 22:56:44;;;;;;;;;;;;;;;;;;5018294;28;19943;-91
2022/08/25 22:59:11;;;;;;;;;;;;;;;;;;5018186;28;20008;-89
2022/08/25 23:01:36;;;;;;;;;;;;;;;;;;5018329;28;20016;-92
2022/08/25 23:04:03;;;;;;;;;;;;;;;;;;5035894;28;19956;-91
2022/08/25 23:06:29;;;;;;;;;;;;;;;;;;5035869;28;19913;-91
2022/08/25 23:08:55;;;;;;;;;;;;;;;;;;5034497;28;20007;-90
2022/08/25 23:11:21;;;;;;;;;;;;;;;;;;5035937;28;20340;-90
2022/08/25 23:13:46;;;;;;;;;;;;;;;;;;5034763;28;20410;-90
2022/08/25 23:16:12;;;;;;;;;;;;;;;;;;5036200;28;19917;-93
2022/08/25 23:18:38;;;;;;;;;;;;;;;;;;5034379;28;20288;-93
2022/08/25 23:23:48;;;;;;;;;;;;;;;;;;5035959;28;20394;-91
2022/08/25 23:26:14;;;;;;;;;;;;;;;;;;5034396;28;19961;-91
2022/08/25 23:28:40;;;;;;;;;;;;;;;;;;5034603;28;19924;-90
2022/08/25 23:31:07;;;;;;;;;;;;;;;;;;5035643;28;20261;-89
2022/08/25 23:33:33;;;;;;;;;;;;;;;;;;5035504;28;20072;-91
2022/08/25 23:35:59;;;;;;;;;;;;;;;;;;5046366;28;20028;-91
2022/08/25 23:38:25;;;;;;;;;;;;;;;;;;5035134;28;19957;-91
2022/08/25 23:40:51;;;;;;;;;;;;;;;;;;5035368;28;20384;-91
2022/08/25 23:43:16;;;;;;;;;;;;;;;;;;5017529;28;19921;-90
2022/08/25 23:45:42;;;;;;;;;;;;;;;;;;5034415;28;19932;-90
2022/08/25 23:48:07;;;;;;;;;;;;;;;;;;5017454;28;19917;-91
2022/08/25 23:50:40;;;;;;;;;;;;;;;;;;5017182;28;19971;-92
2022/08/25 23:53:05;;;;;;;;;;;;;;;;;;5034957;28;19964;-91
2022/08/25 23:55:31;;;;;;;;;;;;;;;;;;5017312;28;19917;-90
2022/08/25 23:57:58;;;;;;;;;;;;;;;;;;5017025;28;19928;-90
